createdAt,value
2023-02-14T00:00:01.926Z,99743.11
2023-02-14T00:04:04.010Z,99746.48
2023-02-14T00:07:59.109Z,99748.52
2023-02-14T00:11:40.340Z,99748.89
2023-02-14T00:15:21.542Z,99748.56
2023-02-14T00:19:03.203Z,99750.98
2023-02-14T00:22:25.838Z,99750.82
2023-02-14T00:26:22.329Z,99754.06
2023-02-14T00:30:04.829Z,99755.95
2023-02-14T00:33:28.976Z,99756.45
2023-02-14T00:37:26.560Z,99753.51
2023-02-14T00:40:49.313Z,99757.95
2023-02-14T00:44:28.779Z,99756.42
2023-02-14T00:48:23.679Z,99753.02
2023-02-14T00:51:45.907Z,99748.45
2023-02-14T00:55:48.764Z,99748.30
2023-02-14T00:59:11.593Z,99742.30
2023-02-14T01:03:07.687Z,99742.30
2023-02-14T01:06:51.050Z,99741.06
2023-02-14T01:10:15.568Z,99740.89
2023-02-14T01:13:56.411Z,99737.63
2023-02-14T01:17:30.877Z,99736.61
2023-02-14T01:21:33.319Z,99737.82
2023-02-14T01:25:14.536Z,99732.52
2023-02-14T01:28:37.848Z,99731.03
2023-02-14T01:32:14.354Z,99727.29
2023-02-14T01:35:52.321Z,99731.23
2023-02-14T01:39:31.286Z,99729.20
2023-02-14T01:43:31.800Z,99731.05
2023-02-14T01:47:23.950Z,99722.32
2023-02-14T01:50:50.319Z,99721.29
2023-02-14T01:54:27.821Z,99722.84
2023-02-14T01:58:27.730Z,99722.35
2023-02-14T02:01:55.125Z,99724.42
2023-02-14T02:05:27.887Z,99723.23
2023-02-14T02:09:34.998Z,99716.56
2023-02-14T02:13:18.816Z,99715.20
2023-02-14T02:17:24.774Z,99715.19
2023-02-14T02:20:53.065Z,99714.34
2023-02-14T02:25:02.198Z,99716.90
2023-02-14T02:29:14.567Z,99710.23
2023-02-14T02:32:57.100Z,99711.11
2023-02-14T02:36:45.590Z,99711.29
2023-02-14T02:40:44.691Z,99713.14
2023-02-14T02:45:06.062Z,99715.88
2023-02-14T02:48:45.030Z,99711.77
2023-02-14T02:53:05.451Z,99714.17
2023-02-14T02:56:47.431Z,99715.58
2023-02-14T03:00:29.982Z,99715.23
2023-02-14T03:04:16.149Z,99713.85
2023-02-14T03:07:58.080Z,99704.96
2023-02-14T03:11:55.988Z,99705.44
2023-02-14T03:15:38.550Z,99704.59
2023-02-14T03:20:14.647Z,99700.30
2023-02-14T03:24:02.558Z,99706.92
2023-02-14T03:27:59.105Z,99707.58
2023-02-14T03:31:32.119Z,99709.49
2023-02-14T03:35:01.768Z,99704.89
2023-02-14T03:38:45.645Z,99699.62
2023-02-14T03:42:26.145Z,99705.83
2023-02-14T03:45:58.885Z,99704.48
2023-02-14T03:49:33.543Z,99713.35
2023-02-14T03:53:09.987Z,99719.46
2023-02-14T03:56:53.144Z,99720.63
2023-02-14T04:00:45.470Z,99722.84
2023-02-14T04:04:08.997Z,99722.84
2023-02-14T04:08:04.126Z,99718.19
2023-02-14T04:11:27.232Z,99718.55
2023-02-14T04:15:23.129Z,99720.32
2023-02-14T04:19:22.530Z,99720.84
2023-02-14T04:23:03.812Z,99721.90
2023-02-14T04:26:25.690Z,99723.41
2023-02-14T04:30:04.934Z,99728.02
2023-02-14T04:33:41.135Z,99726.27
2023-02-14T04:37:21.999Z,99727.13
2023-02-14T04:40:57.966Z,99728.70
2023-02-14T04:44:34.196Z,99728.05
2023-02-14T04:48:12.091Z,99729.64
2023-02-14T04:52:10.657Z,99728.27
2023-02-14T04:55:35.070Z,99735.12
2023-02-14T04:59:12.270Z,99736.97
2023-02-14T05:02:51.347Z,99736.42
2023-02-14T05:06:30.854Z,99737.26
2023-02-14T05:10:24.256Z,99740.50
2023-02-14T05:13:46.467Z,99740.67
2023-02-14T05:17:24.583Z,99743.45
2023-02-14T05:21:21.057Z,99742.26
2023-02-14T05:25:02.407Z,99744.83
2023-02-14T05:28:43.660Z,99749.09
2023-02-14T05:32:05.941Z,99758.80
2023-02-14T05:35:46.634Z,99758.83
2023-02-14T05:39:21.132Z,99759.16
2023-02-14T05:43:00.470Z,99762.60
2023-02-14T05:46:36.396Z,99763.33
2023-02-14T05:50:33.181Z,99761.28
2023-02-14T05:54:14.658Z,99768.10
2023-02-14T05:57:58.616Z,99773.70
2023-02-14T06:01:23.492Z,99770.93
2023-02-14T06:04:58.994Z,99765.95
2023-02-14T06:08:55.413Z,99764.07
2023-02-14T06:12:17.441Z,99769.55
2023-02-14T06:15:55.050Z,99777.78
2023-02-14T06:19:32.726Z,99778.31
2023-02-14T06:23:11.188Z,99783.81
2023-02-14T06:26:48.031Z,99795.24
2023-02-14T06:30:46.286Z,99793.34
2023-02-14T06:34:27.407Z,99794.84
2023-02-14T06:37:49.539Z,99795.36
2023-02-14T06:41:27.150Z,99794.48
2023-02-14T06:45:24.688Z,99796.05
2023-02-14T06:49:05.894Z,99794.39
2023-02-14T06:52:46.870Z,99797.13
2023-02-14T06:56:30.657Z,99799.33
2023-02-14T06:59:52.379Z,99801.70
2023-02-14T07:03:48.951Z,99804.73
2023-02-14T07:07:16.223Z,99803.27
2023-02-14T07:11:07.721Z,99798.64
2023-02-14T07:14:48.946Z,99806.17
2023-02-14T07:18:12.466Z,99810.67
2023-02-14T07:22:08.748Z,99806.25
2023-02-14T07:25:31.062Z,99812.19
2023-02-14T07:29:08.639Z,99812.67
2023-02-14T07:33:05.098Z,99814.05
2023-02-14T07:36:31.553Z,99809.89
2023-02-14T07:40:24.591Z,99810.23
2023-02-14T07:44:05.749Z,99800.46
2023-02-14T07:47:29.339Z,99804.20
2023-02-14T07:51:24.371Z,99805.51
2023-02-14T07:55:06.835Z,99811.06
2023-02-14T07:58:29.178Z,99805.20
2023-02-14T08:02:11.328Z,99814.79
2023-02-14T08:05:57.284Z,99808.48
2023-02-14T08:09:25.780Z,99813.65
2023-02-14T08:13:19.813Z,99815.72
2023-02-14T08:17:03.730Z,99816.70
2023-02-14T08:20:50.877Z,99816.84
2023-02-14T08:24:34.340Z,99816.98
2023-02-14T08:27:57.682Z,99821.41
2023-02-14T08:31:38.491Z,99822.11
2023-02-14T08:35:12.043Z,99826.91
2023-02-14T08:39:12.525Z,99828.05
2023-02-14T08:42:36.442Z,99834.20
2023-02-14T08:46:16.865Z,99834.30
2023-02-14T08:50:14.417Z,99838.89
2023-02-14T08:53:55.631Z,99836.06
2023-02-14T08:57:18.662Z,99844.30
2023-02-14T09:00:55.903Z,99845.17
2023-02-14T09:04:35.449Z,99848.39
2023-02-14T09:08:12.985Z,99853.52
2023-02-14T09:12:09.534Z,99852.63
2023-02-14T09:15:50.615Z,99856.73
2023-02-14T09:19:12.903Z,99859.57
2023-02-14T09:23:09.745Z,99858.02
2023-02-14T09:26:38.891Z,99854.73
2023-02-14T09:30:28.824Z,99855.58
2023-02-14T09:34:30.560Z,99851.44
2023-02-14T09:38:12.574Z,99851.20
2023-02-14T09:41:58.169Z,99849.77
2023-02-14T09:45:43.068Z,99844.86
2023-02-14T09:49:34.996Z,99847.65
2023-02-14T09:53:26.654Z,99851.79
2023-02-14T09:57:11.762Z,99855.59
2023-02-14T10:01:10.527Z,99859.88
2023-02-14T10:04:49.907Z,99855.71
2023-02-14T10:08:47.484Z,99851.70
2023-02-14T10:12:47.696Z,99854.11
2023-02-14T10:16:33.576Z,99856.72
2023-02-14T10:20:27.451Z,99848.45
2023-02-14T10:23:56.361Z,99852.55
2023-02-14T10:27:48.973Z,99843.02
2023-02-14T10:31:20.496Z,99838.98
2023-02-14T10:34:51.784Z,99839.23
2023-02-14T10:38:41.550Z,99840.54
2023-02-14T10:42:25.948Z,99843.23
2023-02-14T10:46:40.485Z,99844.94
2023-02-14T10:50:44.890Z,99842.26
2023-02-14T10:54:25.845Z,99845.45
2023-02-14T10:57:53.826Z,99839.75
2023-02-14T11:01:26.358Z,99843.16
2023-02-14T11:05:05.077Z,99840.90
2023-02-14T11:08:43.288Z,99834.44
2023-02-14T11:12:37.994Z,99836.52
2023-02-14T11:16:04.190Z,99835.14
2023-02-14T11:19:38.959Z,99835.98
2023-02-14T11:23:21.034Z,99836.89
2023-02-14T11:27:05.273Z,99832.66
2023-02-14T11:30:51.896Z,99836.66
2023-02-14T11:34:39.367Z,99835.16
2023-02-14T11:38:33.649Z,99828.00
2023-02-14T11:42:01.328Z,99827.35
2023-02-14T11:45:40.155Z,99819.36
2023-02-14T11:49:55.764Z,99816.28
2023-02-14T11:53:51.530Z,99810.67
2023-02-14T11:57:18.846Z,99809.98
2023-02-14T12:01:25.919Z,99807.56
2023-02-14T12:04:52.953Z,99799.27
2023-02-14T12:08:44.911Z,99797.84
2023-02-14T12:12:27.605Z,99797.51
2023-02-14T12:15:54.650Z,99795.10
2023-02-14T12:19:54.007Z,99788.98
2023-02-14T12:23:22.538Z,99790.12
2023-02-14T12:27:29.082Z,99788.42
2023-02-14T12:30:52.612Z,99781.38
2023-02-14T12:34:29.848Z,99776.27
2023-02-14T12:38:35.836Z,99778.70
2023-02-14T12:42:25.558Z,99774.35
2023-02-14T12:46:43.857Z,99775.61
2023-02-14T12:50:24.851Z,99769.83
2023-02-14T12:54:23.991Z,99760.52
2023-02-14T12:58:01.271Z,99749.75
2023-02-14T13:01:38.498Z,99756.27
2023-02-14T13:05:37.256Z,99753.90
2023-02-14T13:09:28.769Z,99759.25
2023-02-14T13:13:29.958Z,99761.41
2023-02-14T13:17:06.445Z,99750.89
2023-02-14T13:20:32.715Z,99747.41
2023-02-14T13:24:19.877Z,99742.98
2023-02-14T13:27:45.224Z,99739.20
2023-02-14T13:31:41.942Z,99746.21
2023-02-14T13:35:06.888Z,99746.51
2023-02-14T13:38:49.025Z,99741.75
2023-02-14T13:42:47.493Z,99739.92
2023-02-14T13:46:31.614Z,99741.66
2023-02-14T13:50:20.878Z,99742.20
2023-02-14T13:54:19.174Z,99742.73
2023-02-14T13:58:15.678Z,99739.44
2023-02-14T14:02:27.614Z,99737.48
2023-02-14T14:06:01.493Z,99735.08
2023-02-14T14:09:41.750Z,99736.85
2023-02-14T14:13:07.216Z,99732.87
2023-02-14T14:16:58.527Z,99735.96
2023-02-14T14:20:23.182Z,99735.52
2023-02-14T14:24:33.354Z,99731.90
2023-02-14T14:28:21.369Z,99728.86
2023-02-14T14:31:45.154Z,99728.05
2023-02-14T14:35:52.256Z,99724.92
2023-02-14T14:39:40.750Z,99731.61
2023-02-14T14:43:13.284Z,99735.54
2023-02-14T14:46:43.353Z,99732.93
2023-02-14T14:50:27.549Z,99727.64
2023-02-14T14:54:03.426Z,99728.50
2023-02-14T14:57:39.895Z,99733.66
2023-02-14T15:01:30.888Z,99733.73
2023-02-14T15:04:55.727Z,99741.98
2023-02-14T15:08:34.430Z,99738.56
2023-02-14T15:12:29.885Z,99742.17
2023-02-14T15:16:29.347Z,99744.75
2023-02-14T15:20:04.664Z,99743.14
2023-02-14T15:23:30.288Z,99737.12
2023-02-14T15:27:27.600Z,99737.56
2023-02-14T15:31:08.776Z,99737.85
2023-02-14T15:34:53.242Z,99739.04
2023-02-14T15:38:18.111Z,99749.57
2023-02-14T15:41:55.990Z,99751.88
2023-02-14T15:45:31.334Z,99755.09
2023-02-14T15:49:11.782Z,99758.95
2023-02-14T15:52:48.171Z,99759.84
2023-02-14T15:56:31.612Z,99764.23
2023-02-14T16:00:06.593Z,99767.15
2023-02-14T16:03:48.202Z,99766.60
2023-02-14T16:07:28.454Z,99768.62
2023-02-14T16:11:15.139Z,99767.08
2023-02-14T16:14:44.200Z,99769.64
2023-02-14T16:18:46.813Z,99770.13
2023-02-14T16:22:11.360Z,99776.16
2023-02-14T16:26:07.315Z,99781.73
2023-02-14T16:29:29.148Z,99780.36
2023-02-14T16:33:21.212Z,99783.92
2023-02-14T16:36:48.789Z,99788.73
2023-02-14T16:40:44.621Z,99785.52
2023-02-14T16:44:07.027Z,99788.92
2023-02-14T16:47:48.361Z,99788.58
2023-02-14T16:51:43.929Z,99792.53
2023-02-14T16:55:07.045Z,99793.60
2023-02-14T16:58:46.223Z,99794.52
2023-02-14T17:02:22.522Z,99792.44
2023-02-14T17:06:26.934Z,99794.28
2023-02-14T17:09:56.099Z,99790.29
2023-02-14T17:13:27.765Z,99790.30
2023-02-14T17:17:04.280Z,99792.52
2023-02-14T17:21:01.232Z,99793.52
2023-02-14T17:24:29.801Z,99795.77
2023-02-14T17:28:03.633Z,99797.20
2023-02-14T17:31:59.894Z,99794.86
2023-02-14T17:35:40.701Z,99796.58
2023-02-14T17:39:03.361Z,99792.98
2023-02-14T17:42:40.595Z,99789.81
2023-02-14T17:46:21.033Z,99790.08
2023-02-14T17:49:55.398Z,99794.07
2023-02-14T17:53:34.188Z,99793.59
2023-02-14T17:57:12.643Z,99789.55
2023-02-14T18:01:11.350Z,99792.09
2023-02-14T18:04:36.368Z,99795.11
2023-02-14T18:08:13.777Z,99794.80
2023-02-14T18:11:50.529Z,99795.39
2023-02-14T18:15:46.647Z,99789.95
2023-02-14T18:19:28.195Z,99791.37
2023-02-14T18:22:50.365Z,99791.28
2023-02-14T18:26:27.967Z,99788.39
2023-02-14T18:30:06.707Z,99792.44
2023-02-14T18:34:04.542Z,99793.06
2023-02-14T18:37:26.769Z,99796.74
2023-02-14T18:41:06.301Z,99795.73
2023-02-14T18:45:01.377Z,99792.28
2023-02-14T18:48:45.108Z,99788.73
2023-02-14T18:52:07.285Z,99787.39
2023-02-14T18:56:10.430Z,99783.60
2023-02-14T18:59:32.882Z,99786.53
2023-02-14T19:03:15.037Z,99785.15
2023-02-14T19:07:07.296Z,99782.34
2023-02-14T19:10:37.596Z,99784.46
2023-02-14T19:14:10.355Z,99778.08
2023-02-14T19:17:45.058Z,99775.48
2023-02-14T19:21:25.029Z,99771.34
2023-02-14T19:25:22.481Z,99774.19
2023-02-14T19:28:47.405Z,99776.23
2023-02-14T19:32:22.719Z,99777.61
2023-02-14T19:36:02.005Z,99779.44
2023-02-14T19:39:38.833Z,99782.60
2023-02-14T19:43:38.606Z,99777.09
2023-02-14T19:47:04.220Z,99774.52
2023-02-14T19:50:39.348Z,99773.48
2023-02-14T19:54:39.563Z,99778.44
2023-02-14T19:58:20.781Z,99775.98
2023-02-14T20:01:54.548Z,99775.50
2023-02-14T20:05:22.904Z,99776.20
2023-02-14T20:08:59.940Z,99773.14
2023-02-14T20:12:56.241Z,99771.63
2023-02-14T20:16:25.904Z,99770.96
2023-02-14T20:20:01.946Z,99773.23
2023-02-14T20:24:04.804Z,99774.61
2023-02-14T20:27:46.428Z,99773.70
2023-02-14T20:31:31.026Z,99776.50
2023-02-14T20:34:54.316Z,99781.59
2023-02-14T20:38:33.629Z,99781.27
2023-02-14T20:42:28.317Z,99776.41
2023-02-14T20:45:50.812Z,99777.05
2023-02-14T20:49:30.768Z,99779.63
2023-02-14T20:53:07.843Z,99781.67
2023-02-14T20:56:43.720Z,99772.23
2023-02-14T21:00:25.664Z,99766.81
2023-02-14T21:03:58.925Z,99767.67
2023-02-14T21:07:38.347Z,99767.36
2023-02-14T21:11:16.629Z,99764.56
2023-02-14T21:15:11.264Z,99762.92
2023-02-14T21:18:58.134Z,99762.13
2023-02-14T21:22:20.374Z,99765.63
2023-02-14T21:25:58.170Z,99764.38
2023-02-14T21:29:35.609Z,99764.89
2023-02-14T21:33:15.477Z,99763.08
2023-02-14T21:37:10.461Z,99761.39
2023-02-14T21:40:32.639Z,99756.13
2023-02-14T21:44:30.199Z,99756.75
2023-02-14T21:48:31.227Z,99757.50
2023-02-14T21:51:53.902Z,99752.00
2023-02-14T21:55:33.276Z,99748.14
2023-02-14T21:59:14.308Z,99744.14
2023-02-14T22:03:05.515Z,99743.20
2023-02-14T22:06:52.274Z,99743.81
2023-02-14T22:10:40.497Z,99733.30
2023-02-14T22:18:07.291Z,99729.14
2023-02-14T22:25:33.349Z,99730.11
2023-02-14T22:36:37.374Z,99733.34
2023-02-14T22:40:24.647Z,99727.52
2023-02-14T22:47:49.649Z,99733.35
2023-02-14T23:02:30.152Z,99737.55
2023-02-14T23:06:17.792Z,99736.87
2023-02-14T23:10:09.027Z,99735.84
2023-02-14T23:14:17.857Z,99730.06
2023-02-14T23:18:24.527Z,99725.19
2023-02-14T23:25:49.397Z,99722.33
2023-02-14T23:29:42.404Z,99716.63
2023-02-14T23:36:46.041Z,99713.48
2023-02-14T23:41:01.593Z,99715.77
2023-02-14T23:44:44.846Z,99712.08
2023-02-14T23:48:28.261Z,99712.16
2023-02-14T23:52:11.539Z,99708.56
2023-02-14T23:55:52.537Z,99705.27
2023-02-14T23:59:39.411Z,99699.95
